sensor_id;sensor_type;location;lat;lon;timestamp;P1;durP1;ratioP1;P2;durP2;ratioP2
73872;SDS011;62206;47.568;9.364;2023-12-28T00:02:15;15.85;;;12.85;;
73872;SDS011;62206;47.568;9.364;2023-12-28T00:04:42;15.65;;;13.15;;
73872;SDS011;62206;47.568;9.364;2023-12-28T00:07:09;15.77;;;12.73;;
73872;SDS011;62206;47.568;9.364;2023-12-28T00:09:39;15.80;;;12.37;;
73872;SDS011;62206;47.568;9.364;2023-12-28T00:12:06;19.05;;;13.30;;
73872;SDS011;62206;47.568;9.364;2023-12-28T00:14:33;16.05;;;14.10;;
73872;SDS011;62206;47.568;9.364;2023-12-28T00:17:00;17.33;;;13.77;;
73872;SDS011;62206;47.568;9.364;2023-12-28T00:19:27;16.95;;;13.77;;
73872;SDS011;62206;47.568;9.364;2023-12-28T00:21:54;19.37;;;13.20;;
73872;SDS011;62206;47.568;9.364;2023-12-28T00:24:22;17.92;;;13.95;;
73872;SDS011;62206;47.568;9.364;2023-12-28T00:26:50;16.40;;;13.10;;
73872;SDS011;62206;47.568;9.364;2023-12-28T00:29:17;16.55;;;12.73;;
73872;SDS011;62206;47.568;9.364;2023-12-28T00:31:44;16.85;;;13.52;;
73872;SDS011;62206;47.568;9.364;2023-12-28T00:34:11;17.83;;;13.23;;
73872;SDS011;62206;47.568;9.364;2023-12-28T00:36:38;17.67;;;14.38;;
73872;SDS011;62206;47.568;9.364;2023-12-28T00:39:05;19.80;;;15.30;;
73872;SDS011;62206;47.568;9.364;2023-12-28T00:41:33;19.50;;;13.88;;
73872;SDS011;62206;47.568;9.364;2023-12-28T00:44:02;18.95;;;15.20;;
73872;SDS011;62206;47.568;9.364;2023-12-28T00:46:31;21.10;;;14.57;;
73872;SDS011;62206;47.568;9.364;2023-12-28T00:48:57;23.45;;;15.60;;
73872;SDS011;62206;47.568;9.364;2023-12-28T00:51:24;22.38;;;16.67;;
73872;SDS011;62206;47.568;9.364;2023-12-28T00:53:52;22.85;;;16.58;;
73872;SDS011;62206;47.568;9.364;2023-12-28T00:56:18;25.15;;;16.35;;
73872;SDS011;62206;47.568;9.364;2023-12-28T00:58:46;24.97;;;17.43;;
73872;SDS011;62206;47.568;9.364;2023-12-28T01:01:15;22.45;;;17.02;;
73872;SDS011;62206;47.568;9.364;2023-12-28T01:03:42;21.55;;;16.13;;
73872;SDS011;62206;47.568;9.364;2023-12-28T01:06:09;24.35;;;17.48;;
73872;SDS011;62206;47.568;9.364;2023-12-28T01:08:36;24.05;;;17.25;;
73872;SDS011;62206;47.568;9.364;2023-12-28T01:11:04;25.77;;;17.73;;
73872;SDS011;62206;47.568;9.364;2023-12-28T01:13:31;36.67;;;17.80;;
73872;SDS011;62206;47.568;9.364;2023-12-28T01:15:59;24.52;;;16.33;;
73872;SDS011;62206;47.568;9.364;2023-12-28T01:18:27;25.10;;;17.20;;
73872;SDS011;62206;47.568;9.364;2023-12-28T01:20:54;22.83;;;17.98;;
73872;SDS011;62206;47.568;9.364;2023-12-28T01:23:21;24.07;;;16.30;;
73872;SDS011;62206;47.568;9.364;2023-12-28T01:25:48;27.15;;;17.40;;
73872;SDS011;62206;47.568;9.364;2023-12-28T01:28:15;34.47;;;18.92;;
73872;SDS011;62206;47.568;9.364;2023-12-28T01:30:43;25.30;;;18.02;;
73872;SDS011;62206;47.568;9.364;2023-12-28T01:33:10;26.80;;;17.48;;
73872;SDS011;62206;47.568;9.364;2023-12-28T01:35:38;23.80;;;16.80;;
73872;SDS011;62206;47.568;9.364;2023-12-28T01:38:05;21.92;;;16.45;;
73872;SDS011;62206;47.568;9.364;2023-12-28T01:40:32;23.77;;;17.25;;
73872;SDS011;62206;47.568;9.364;2023-12-28T01:42:59;25.58;;;17.38;;
73872;SDS011;62206;47.568;9.364;2023-12-28T01:45:27;25.98;;;17.38;;
73872;SDS011;62206;47.568;9.364;2023-12-28T01:47:56;21.97;;;17.47;;
73872;SDS011;62206;47.568;9.364;2023-12-28T01:50:24;23.75;;;16.10;;
73872;SDS011;62206;47.568;9.364;2023-12-28T01:52:54;25.45;;;17.92;;
73872;SDS011;62206;47.568;9.364;2023-12-28T01:55:22;26.38;;;17.33;;
73872;SDS011;62206;47.568;9.364;2023-12-28T01:57:49;25.35;;;17.20;;
73872;SDS011;62206;47.568;9.364;2023-12-28T02:00:17;24.20;;;16.43;;
73872;SDS011;62206;47.568;9.364;2023-12-28T02:02:44;24.98;;;18.13;;
73872;SDS011;62206;47.568;9.364;2023-12-28T02:05:11;58.75;;;18.92;;
73872;SDS011;62206;47.568;9.364;2023-12-28T02:07:39;25.23;;;16.77;;
73872;SDS011;62206;47.568;9.364;2023-12-28T02:10:07;25.58;;;18.27;;
73872;SDS011;62206;47.568;9.364;2023-12-28T02:12:34;24.13;;;16.90;;
73872;SDS011;62206;47.568;9.364;2023-12-28T02:15:02;26.35;;;17.55;;
73872;SDS011;62206;47.568;9.364;2023-12-28T02:17:30;26.38;;;17.92;;
73872;SDS011;62206;47.568;9.364;2023-12-28T02:19:59;52.80;;;18.83;;
73872;SDS011;62206;47.568;9.364;2023-12-28T02:22:31;28.45;;;18.00;;
73872;SDS011;62206;47.568;9.364;2023-12-28T02:25:13;75.27;;;19.30;;
73872;SDS011;62206;47.568;9.364;2023-12-28T02:27:41;35.17;;;18.45;;
73872;SDS011;62206;47.568;9.364;2023-12-28T02:30:09;23.90;;;17.23;;
73872;SDS011;62206;47.568;9.364;2023-12-28T02:32:42;24.30;;;16.35;;
73872;SDS011;62206;47.568;9.364;2023-12-28T02:35:14;30.70;;;17.08;;
73872;SDS011;62206;47.568;9.364;2023-12-28T02:37:44;45.57;;;16.07;;
73872;SDS011;62206;47.568;9.364;2023-12-28T02:40:14;19.48;;;15.30;;
73872;SDS011;62206;47.568;9.364;2023-12-28T02:42:42;73.80;;;16.58;;
73872;SDS011;62206;47.568;9.364;2023-12-28T02:45:09;62.97;;;16.05;;
73872;SDS011;62206;47.568;9.364;2023-12-28T02:47:37;62.88;;;16.52;;
73872;SDS011;62206;47.568;9.364;2023-12-28T02:50:04;72.70;;;18.23;;
73872;SDS011;62206;47.568;9.364;2023-12-28T02:52:32;43.95;;;15.95;;
73872;SDS011;62206;47.568;9.364;2023-12-28T02:55:00;30.40;;;15.32;;
73872;SDS011;62206;47.568;9.364;2023-12-28T02:57:28;23.67;;;14.07;;
73872;SDS011;62206;47.568;9.364;2023-12-28T02:59:55;25.98;;;14.68;;
73872;SDS011;62206;47.568;9.364;2023-12-28T03:02:27;20.47;;;13.27;;
73872;SDS011;62206;47.568;9.364;2023-12-28T03:04:54;16.55;;;12.98;;
73872;SDS011;62206;47.568;9.364;2023-12-28T03:07:21;15.55;;;13.25;;
73872;SDS011;62206;47.568;9.364;2023-12-28T03:09:49;15.25;;;13.65;;
73872;SDS011;62206;47.568;9.364;2023-12-28T03:12:15;16.50;;;14.40;;
73872;SDS011;62206;47.568;9.364;2023-12-28T03:14:44;15.53;;;12.83;;
73872;SDS011;62206;47.568;9.364;2023-12-28T03:17:11;17.80;;;15.00;;
73872;SDS011;62206;47.568;9.364;2023-12-28T03:19:39;15.40;;;13.30;;
73872;SDS011;62206;47.568;9.364;2023-12-28T03:22:05;14.93;;;12.50;;
73872;SDS011;62206;47.568;9.364;2023-12-28T03:24:33;15.07;;;12.50;;
73872;SDS011;62206;47.568;9.364;2023-12-28T03:27:00;14.73;;;12.87;;
73872;SDS011;62206;47.568;9.364;2023-12-28T03:29:26;16.77;;;13.52;;
73872;SDS011;62206;47.568;9.364;2023-12-28T03:31:56;14.63;;;13.02;;
73872;SDS011;62206;47.568;9.364;2023-12-28T03:34:22;15.02;;;13.43;;
73872;SDS011;62206;47.568;9.364;2023-12-28T03:36:51;15.77;;;13.68;;
73872;SDS011;62206;47.568;9.364;2023-12-28T03:39:19;15.90;;;12.67;;
73872;SDS011;62206;47.568;9.364;2023-12-28T03:41:46;16.33;;;13.68;;
73872;SDS011;62206;47.568;9.364;2023-12-28T03:44:13;17.25;;;13.85;;
73872;SDS011;62206;47.568;9.364;2023-12-28T03:46:41;17.10;;;13.93;;
73872;SDS011;62206;47.568;9.364;2023-12-28T03:49:10;20.67;;;14.90;;
73872;SDS011;62206;47.568;9.364;2023-12-28T03:51:36;15.33;;;13.03;;
73872;SDS011;62206;47.568;9.364;2023-12-28T03:54:04;15.43;;;13.70;;
73872;SDS011;62206;47.568;9.364;2023-12-28T03:56:31;17.83;;;13.65;;
73872;SDS011;62206;47.568;9.364;2023-12-28T03:59:01;17.67;;;13.70;;
73872;SDS011;62206;47.568;9.364;2023-12-28T04:01:28;18.67;;;13.77;;
73872;SDS011;62206;47.568;9.364;2023-12-28T04:03:55;14.53;;;12.70;;
73872;SDS011;62206;47.568;9.364;2023-12-28T04:06:23;16.50;;;13.25;;
73872;SDS011;62206;47.568;9.364;2023-12-28T04:08:51;17.88;;;13.98;;
73872;SDS011;62206;47.568;9.364;2023-12-28T04:11:17;18.63;;;13.50;;
73872;SDS011;62206;47.568;9.364;2023-12-28T04:13:44;16.70;;;13.88;;
73872;SDS011;62206;47.568;9.364;2023-12-28T04:16:12;18.43;;;12.53;;
73872;SDS011;62206;47.568;9.364;2023-12-28T04:18:39;38.58;;;14.15;;
73872;SDS011;62206;47.568;9.364;2023-12-28T04:21:07;30.50;;;14.52;;
73872;SDS011;62206;47.568;9.364;2023-12-28T04:23:37;29.13;;;14.35;;
73872;SDS011;62206;47.568;9.364;2023-12-28T04:26:04;16.02;;;14.32;;
73872;SDS011;62206;47.568;9.364;2023-12-28T04:28:32;29.10;;;14.23;;
73872;SDS011;62206;47.568;9.364;2023-12-28T04:31:01;15.38;;;12.68;;
73872;SDS011;62206;47.568;9.364;2023-12-28T04:33:29;16.90;;;13.80;;
73872;SDS011;62206;47.568;9.364;2023-12-28T04:35:55;17.38;;;12.70;;
73872;SDS011;62206;47.568;9.364;2023-12-28T04:38:23;14.75;;;11.45;;
73872;SDS011;62206;47.568;9.364;2023-12-28T04:40:51;13.33;;;11.97;;
73872;SDS011;62206;47.568;9.364;2023-12-28T04:43:18;14.13;;;12.63;;
73872;SDS011;62206;47.568;9.364;2023-12-28T04:45:46;14.45;;;12.68;;
73872;SDS011;62206;47.568;9.364;2023-12-28T04:48:13;23.02;;;12.48;;
73872;SDS011;62206;47.568;9.364;2023-12-28T04:50:40;19.15;;;12.82;;
73872;SDS011;62206;47.568;9.364;2023-12-28T04:53:07;24.40;;;12.80;;
73872;SDS011;62206;47.568;9.364;2023-12-28T04:55:34;31.13;;;12.10;;
73872;SDS011;62206;47.568;9.364;2023-12-28T04:58:03;21.95;;;11.38;;
73872;SDS011;62206;47.568;9.364;2023-12-28T05:00:30;26.92;;;11.75;;
73872;SDS011;62206;47.568;9.364;2023-12-28T05:02:57;14.40;;;11.98;;
73872;SDS011;62206;47.568;9.364;2023-12-28T05:05:24;13.10;;;11.80;;
73872;SDS011;62206;47.568;9.364;2023-12-28T05:07:52;13.55;;;12.07;;
73872;SDS011;62206;47.568;9.364;2023-12-28T05:10:19;12.80;;;11.52;;
73872;SDS011;62206;47.568;9.364;2023-12-28T05:12:46;25.88;;;11.65;;
73872;SDS011;62206;47.568;9.364;2023-12-28T05:15:15;62.53;;;14.32;;
73872;SDS011;62206;47.568;9.364;2023-12-28T05:17:43;14.70;;;11.80;;
73872;SDS011;62206;47.568;9.364;2023-12-28T05:20:10;14.15;;;12.23;;
73872;SDS011;62206;47.568;9.364;2023-12-28T05:22:38;53.65;;;13.38;;
73872;SDS011;62206;47.568;9.364;2023-12-28T05:25:05;21.27;;;12.30;;
73872;SDS011;62206;47.568;9.364;2023-12-28T05:27:32;29.33;;;12.80;;
73872;SDS011;62206;47.568;9.364;2023-12-28T05:30:00;15.00;;;11.30;;
73872;SDS011;62206;47.568;9.364;2023-12-28T05:32:28;15.25;;;12.40;;
73872;SDS011;62206;47.568;9.364;2023-12-28T05:34:55;14.75;;;12.55;;
73872;SDS011;62206;47.568;9.364;2023-12-28T05:37:22;15.55;;;12.07;;
73872;SDS011;62206;47.568;9.364;2023-12-28T05:39:49;17.83;;;13.05;;
73872;SDS011;62206;47.568;9.364;2023-12-28T05:42:17;22.47;;;14.27;;
73872;SDS011;62206;47.568;9.364;2023-12-28T05:44:44;24.63;;;15.48;;
73872;SDS011;62206;47.568;9.364;2023-12-28T05:47:11;23.13;;;16.05;;
73872;SDS011;62206;47.568;9.364;2023-12-28T05:49:39;22.00;;;14.88;;
73872;SDS011;62206;47.568;9.364;2023-12-28T05:52:08;23.52;;;15.35;;
73872;SDS011;62206;47.568;9.364;2023-12-28T05:54:35;22.37;;;15.10;;
73872;SDS011;62206;47.568;9.364;2023-12-28T05:57:02;19.23;;;14.05;;
73872;SDS011;62206;47.568;9.364;2023-12-28T05:59:29;18.67;;;14.73;;
73872;SDS011;62206;47.568;9.364;2023-12-28T06:01:56;14.88;;;12.25;;
73872;SDS011;62206;47.568;9.364;2023-12-28T06:04:23;13.77;;;12.38;;
73872;SDS011;62206;47.568;9.364;2023-12-28T06:06:52;13.47;;;12.07;;
73872;SDS011;62206;47.568;9.364;2023-12-28T06:09:19;13.25;;;11.85;;
73872;SDS011;62206;47.568;9.364;2023-12-28T06:11:46;12.93;;;11.05;;
73872;SDS011;62206;47.568;9.364;2023-12-28T06:14:13;12.45;;;11.23;;
73872;SDS011;62206;47.568;9.364;2023-12-28T06:16:40;12.30;;;11.10;;
73872;SDS011;62206;47.568;9.364;2023-12-28T06:19:07;12.53;;;11.23;;
73872;SDS011;62206;47.568;9.364;2023-12-28T06:21:35;13.10;;;11.80;;
73872;SDS011;62206;47.568;9.364;2023-12-28T06:24:04;13.05;;;11.68;;
73872;SDS011;62206;47.568;9.364;2023-12-28T06:26:31;12.68;;;11.43;;
73872;SDS011;62206;47.568;9.364;2023-12-28T06:28:58;13.32;;;11.98;;
73872;SDS011;62206;47.568;9.364;2023-12-28T06:31:25;15.03;;;13.53;;
73872;SDS011;62206;47.568;9.364;2023-12-28T06:33:52;14.05;;;12.55;;
73872;SDS011;62206;47.568;9.364;2023-12-28T06:36:19;14.38;;;12.82;;
73872;SDS011;62206;47.568;9.364;2023-12-28T06:38:46;15.68;;;11.23;;
73872;SDS011;62206;47.568;9.364;2023-12-28T06:41:14;15.65;;;13.32;;
73872;SDS011;62206;47.568;9.364;2023-12-28T06:43:42;17.93;;;13.17;;
73872;SDS011;62206;47.568;9.364;2023-12-28T06:46:09;15.35;;;13.25;;
73872;SDS011;62206;47.568;9.364;2023-12-28T06:48:36;15.88;;;13.70;;
73872;SDS011;62206;47.568;9.364;2023-12-28T06:51:06;17.38;;;13.68;;
73872;SDS011;62206;47.568;9.364;2023-12-28T06:53:32;17.00;;;14.02;;
73872;SDS011;62206;47.568;9.364;2023-12-28T06:55:59;17.10;;;14.20;;
73872;SDS011;62206;47.568;9.364;2023-12-28T06:58:28;15.23;;;13.60;;
73872;SDS011;62206;47.568;9.364;2023-12-28T07:00:55;17.05;;;14.82;;
73872;SDS011;62206;47.568;9.364;2023-12-28T07:03:22;15.65;;;13.50;;
73872;SDS011;62206;47.568;9.364;2023-12-28T07:05:51;18.08;;;15.00;;
73872;SDS011;62206;47.568;9.364;2023-12-28T07:08:18;14.83;;;13.23;;
73872;SDS011;62206;47.568;9.364;2023-12-28T07:10:44;15.85;;;14.20;;
73872;SDS011;62206;47.568;9.364;2023-12-28T07:13:12;17.02;;;13.88;;
73872;SDS011;62206;47.568;9.364;2023-12-28T07:15:40;14.60;;;13.05;;
73872;SDS011;62206;47.568;9.364;2023-12-28T07:18:07;16.02;;;12.82;;
73872;SDS011;62206;47.568;9.364;2023-12-28T07:20:35;16.20;;;12.63;;
73872;SDS011;62206;47.568;9.364;2023-12-28T07:23:02;17.17;;;13.02;;
73872;SDS011;62206;47.568;9.364;2023-12-28T07:25:29;14.85;;;13.13;;
73872;SDS011;62206;47.568;9.364;2023-12-28T07:27:57;15.43;;;12.85;;
73872;SDS011;62206;47.568;9.364;2023-12-28T07:30:24;20.98;;;13.68;;
73872;SDS011;62206;47.568;9.364;2023-12-28T07:32:52;14.67;;;12.13;;
73872;SDS011;62206;47.568;9.364;2023-12-28T07:35:19;16.88;;;13.55;;
73872;SDS011;62206;47.568;9.364;2023-12-28T07:37:46;19.40;;;13.65;;
73872;SDS011;62206;47.568;9.364;2023-12-28T07:40:14;24.27;;;13.13;;
73872;SDS011;62206;47.568;9.364;2023-12-28T07:42:41;14.52;;;12.93;;
73872;SDS011;62206;47.568;9.364;2023-12-28T07:45:08;21.27;;;14.27;;
73872;SDS011;62206;47.568;9.364;2023-12-28T07:47:35;28.05;;;13.88;;
73872;SDS011;62206;47.568;9.364;2023-12-28T07:50:04;16.45;;;14.70;;
73872;SDS011;62206;47.568;9.364;2023-12-28T07:52:32;26.63;;;15.13;;
73872;SDS011;62206;47.568;9.364;2023-12-28T07:54:59;27.75;;;15.18;;
73872;SDS011;62206;47.568;9.364;2023-12-28T07:57:26;16.83;;;13.17;;
73872;SDS011;62206;47.568;9.364;2023-12-28T07:59:53;17.48;;;13.43;;
73872;SDS011;62206;47.568;9.364;2023-12-28T08:02:20;23.08;;;14.90;;
73872;SDS011;62206;47.568;9.364;2023-12-28T08:04:48;60.72;;;15.50;;
73872;SDS011;62206;47.568;9.364;2023-12-28T08:07:16;23.88;;;14.52;;
73872;SDS011;62206;47.568;9.364;2023-12-28T08:09:44;15.60;;;12.50;;
73872;SDS011;62206;47.568;9.364;2023-12-28T08:12:11;26.02;;;13.95;;
73872;SDS011;62206;47.568;9.364;2023-12-28T08:14:38;29.42;;;15.65;;
73872;SDS011;62206;47.568;9.364;2023-12-28T08:17:07;20.55;;;15.18;;
73872;SDS011;62206;47.568;9.364;2023-12-28T08:19:42;25.23;;;16.75;;
73872;SDS011;62206;47.568;9.364;2023-12-28T08:22:08;23.20;;;16.20;;
73872;SDS011;62206;47.568;9.364;2023-12-28T08:24:37;23.58;;;17.60;;
73872;SDS011;62206;47.568;9.364;2023-12-28T08:27:04;22.23;;;16.17;;
73872;SDS011;62206;47.568;9.364;2023-12-28T08:29:31;16.45;;;14.70;;
73872;SDS011;62206;47.568;9.364;2023-12-28T08:31:58;18.98;;;13.60;;
73872;SDS011;62206;47.568;9.364;2023-12-28T08:34:26;16.80;;;13.57;;
73872;SDS011;62206;47.568;9.364;2023-12-28T08:36:53;17.33;;;13.80;;
73872;SDS011;62206;47.568;9.364;2023-12-28T08:39:20;20.70;;;13.85;;
73872;SDS011;62206;47.568;9.364;2023-12-28T08:41:49;15.93;;;14.20;;
73872;SDS011;62206;47.568;9.364;2023-12-28T08:44:16;16.05;;;13.75;;
73872;SDS011;62206;47.568;9.364;2023-12-28T08:46:42;17.27;;;13.13;;
73872;SDS011;62206;47.568;9.364;2023-12-28T08:49:11;16.77;;;14.35;;
73872;SDS011;62206;47.568;9.364;2023-12-28T08:51:40;16.35;;;14.63;;
73872;SDS011;62206;47.568;9.364;2023-12-28T08:54:07;16.60;;;13.88;;
73872;SDS011;62206;47.568;9.364;2023-12-28T08:56:35;16.42;;;13.70;;
73872;SDS011;62206;47.568;9.364;2023-12-28T08:59:03;14.97;;;12.37;;
73872;SDS011;62206;47.568;9.364;2023-12-28T09:01:30;15.95;;;13.10;;
73872;SDS011;62206;47.568;9.364;2023-12-28T09:03:58;15.70;;;13.07;;
73872;SDS011;62206;47.568;9.364;2023-12-28T09:06:26;16.00;;;14.00;;
73872;SDS011;62206;47.568;9.364;2023-12-28T09:08:53;16.23;;;14.52;;
73872;SDS011;62206;47.568;9.364;2023-12-28T09:11:20;16.43;;;14.00;;
73872;SDS011;62206;47.568;9.364;2023-12-28T09:13:47;18.55;;;15.32;;
73872;SDS011;62206;47.568;9.364;2023-12-28T09:16:16;18.80;;;14.27;;
73872;SDS011;62206;47.568;9.364;2023-12-28T09:18:43;17.88;;;12.77;;
73872;SDS011;62206;47.568;9.364;2023-12-28T09:21:10;16.60;;;14.45;;
73872;SDS011;62206;47.568;9.364;2023-12-28T09:23:37;15.83;;;13.43;;
73872;SDS011;62206;47.568;9.364;2023-12-28T09:26:06;17.50;;;13.75;;
73872;SDS011;62206;47.568;9.364;2023-12-28T09:28:33;15.98;;;13.88;;
73872;SDS011;62206;47.568;9.364;2023-12-28T09:31:00;14.98;;;13.02;;
73872;SDS011;62206;47.568;9.364;2023-12-28T09:33:29;16.67;;;12.98;;
73872;SDS011;62206;47.568;9.364;2023-12-28T09:35:56;17.13;;;14.87;;
73872;SDS011;62206;47.568;9.364;2023-12-28T09:38:23;15.15;;;13.10;;
73872;SDS011;62206;47.568;9.364;2023-12-28T09:40:53;15.55;;;13.02;;
73872;SDS011;62206;47.568;9.364;2023-12-28T09:43:21;15.63;;;13.50;;
73872;SDS011;62206;47.568;9.364;2023-12-28T09:45:49;17.00;;;15.30;;
73872;SDS011;62206;47.568;9.364;2023-12-28T09:48:17;15.97;;;13.97;;
73872;SDS011;62206;47.568;9.364;2023-12-28T09:50:48;16.70;;;15.00;;
73872;SDS011;62206;47.568;9.364;2023-12-28T09:53:16;16.63;;;14.63;;
73872;SDS011;62206;47.568;9.364;2023-12-28T09:55:43;16.88;;;14.15;;
73872;SDS011;62206;47.568;9.364;2023-12-28T09:58:10;16.55;;;14.20;;
73872;SDS011;62206;47.568;9.364;2023-12-28T10:00:40;15.73;;;14.13;;
73872;SDS011;62206;47.568;9.364;2023-12-28T10:03:11;16.83;;;14.30;;
73872;SDS011;62206;47.568;9.364;2023-12-28T10:05:40;16.25;;;13.57;;
73872;SDS011;62206;47.568;9.364;2023-12-28T10:08:10;15.35;;;13.50;;
73872;SDS011;62206;47.568;9.364;2023-12-28T10:10:37;15.35;;;13.52;;
73872;SDS011;62206;47.568;9.364;2023-12-28T10:13:05;15.33;;;13.03;;
73872;SDS011;62206;47.568;9.364;2023-12-28T10:15:33;16.15;;;14.38;;
73872;SDS011;62206;47.568;9.364;2023-12-28T10:18:00;15.90;;;13.35;;
73872;SDS011;62206;47.568;9.364;2023-12-28T10:20:28;15.50;;;13.90;;
73872;SDS011;62206;47.568;9.364;2023-12-28T10:22:56;15.10;;;13.50;;
73872;SDS011;62206;47.568;9.364;2023-12-28T10:25:24;14.57;;;12.97;;
73872;SDS011;62206;47.568;9.364;2023-12-28T10:27:52;15.10;;;12.73;;
73872;SDS011;62206;47.568;9.364;2023-12-28T10:30:20;15.25;;;13.57;;
73872;SDS011;62206;47.568;9.364;2023-12-28T10:32:47;15.15;;;12.70;;
73872;SDS011;62206;47.568;9.364;2023-12-28T10:35:14;15.77;;;14.18;;
73872;SDS011;62206;47.568;9.364;2023-12-28T10:37:42;15.57;;;13.53;;
73872;SDS011;62206;47.568;9.364;2023-12-28T10:40:11;15.02;;;13.52;;
73872;SDS011;62206;47.568;9.364;2023-12-28T10:42:45;16.30;;;13.55;;
73872;SDS011;62206;47.568;9.364;2023-12-28T10:45:18;14.88;;;12.77;;
73872;SDS011;62206;47.568;9.364;2023-12-28T10:47:51;16.55;;;13.93;;
73872;SDS011;62206;47.568;9.364;2023-12-28T10:50:21;17.00;;;14.07;;
73872;SDS011;62206;47.568;9.364;2023-12-28T10:52:50;15.32;;;13.30;;
73872;SDS011;62206;47.568;9.364;2023-12-28T10:55:24;16.63;;;14.70;;
73872;SDS011;62206;47.568;9.364;2023-12-28T10:57:58;16.20;;;14.50;;
73872;SDS011;62206;47.568;9.364;2023-12-28T11:00:30;16.30;;;14.68;;
73872;SDS011;62206;47.568;9.364;2023-12-28T11:03:02;16.53;;;14.40;;
73872;SDS011;62206;47.568;9.364;2023-12-28T11:05:31;16.95;;;14.63;;
73872;SDS011;62206;47.568;9.364;2023-12-28T11:07:58;15.95;;;14.10;;
73872;SDS011;62206;47.568;9.364;2023-12-28T11:10:26;17.13;;;14.52;;
73872;SDS011;62206;47.568;9.364;2023-12-28T11:12:54;15.77;;;14.07;;
73872;SDS011;62206;47.568;9.364;2023-12-28T11:15:24;16.70;;;14.90;;
73872;SDS011;62206;47.568;9.364;2023-12-28T11:17:52;35.88;;;21.02;;
73872;SDS011;62206;47.568;9.364;2023-12-28T11:20:20;18.17;;;15.20;;
73872;SDS011;62206;47.568;9.364;2023-12-28T11:22:47;18.40;;;15.85;;
73872;SDS011;62206;47.568;9.364;2023-12-28T11:25:15;16.58;;;14.82;;
73872;SDS011;62206;47.568;9.364;2023-12-28T11:27:44;16.23;;;13.87;;
73872;SDS011;62206;47.568;9.364;2023-12-28T11:30:13;17.15;;;15.07;;
73872;SDS011;62206;47.568;9.364;2023-12-28T11:32:40;20.15;;;15.65;;
73872;SDS011;62206;47.568;9.364;2023-12-28T11:35:10;15.55;;;13.82;;
73872;SDS011;62206;47.568;9.364;2023-12-28T11:37:39;16.60;;;14.75;;
73872;SDS011;62206;47.568;9.364;2023-12-28T11:40:11;17.70;;;14.57;;
73872;SDS011;62206;47.568;9.364;2023-12-28T11:42:47;18.40;;;14.43;;
73872;SDS011;62206;47.568;9.364;2023-12-28T11:45:17;18.67;;;15.05;;
73872;SDS011;62206;47.568;9.364;2023-12-28T11:47:45;16.55;;;14.75;;
73872;SDS011;62206;47.568;9.364;2023-12-28T11:50:12;17.67;;;15.73;;
73872;SDS011;62206;47.568;9.364;2023-12-28T11:52:40;16.73;;;14.30;;
73872;SDS011;62206;47.568;9.364;2023-12-28T11:55:07;16.08;;;14.38;;
73872;SDS011;62206;47.568;9.364;2023-12-28T11:57:36;17.77;;;15.00;;
73872;SDS011;62206;47.568;9.364;2023-12-28T12:00:04;16.35;;;14.07;;
73872;SDS011;62206;47.568;9.364;2023-12-28T12:02:35;16.77;;;13.93;;
73872;SDS011;62206;47.568;9.364;2023-12-28T12:05:02;16.90;;;14.20;;
73872;SDS011;62206;47.568;9.364;2023-12-28T12:07:30;16.02;;;13.75;;
73872;SDS011;62206;47.568;9.364;2023-12-28T12:09:57;16.25;;;14.48;;
73872;SDS011;62206;47.568;9.364;2023-12-28T12:12:24;15.60;;;13.90;;
73872;SDS011;62206;47.568;9.364;2023-12-28T12:14:52;15.82;;;14.15;;
73872;SDS011;62206;47.568;9.364;2023-12-28T12:17:19;19.13;;;16.97;;
73872;SDS011;62206;47.568;9.364;2023-12-28T12:19:47;20.60;;;17.95;;
73872;SDS011;62206;47.568;9.364;2023-12-28T12:22:16;20.80;;;17.25;;
73872;SDS011;62206;47.568;9.364;2023-12-28T12:24:44;19.23;;;15.60;;
73872;SDS011;62206;47.568;9.364;2023-12-28T12:27:14;17.42;;;15.52;;
73872;SDS011;62206;47.568;9.364;2023-12-28T12:29:40;16.57;;;13.90;;
73872;SDS011;62206;47.568;9.364;2023-12-28T12:32:08;18.42;;;16.33;;
73872;SDS011;62206;47.568;9.364;2023-12-28T12:34:35;16.25;;;14.57;;
73872;SDS011;62206;47.568;9.364;2023-12-28T12:37:04;17.02;;;15.10;;
73872;SDS011;62206;47.568;9.364;2023-12-28T12:39:31;17.38;;;15.10;;
73872;SDS011;62206;47.568;9.364;2023-12-28T12:41:58;21.13;;;14.50;;
73872;SDS011;62206;47.568;9.364;2023-12-28T12:44:25;17.08;;;14.63;;
73872;SDS011;62206;47.568;9.364;2023-12-28T12:46:56;17.80;;;15.82;;
73872;SDS011;62206;47.568;9.364;2023-12-28T12:49:24;16.90;;;14.98;;
73872;SDS011;62206;47.568;9.364;2023-12-28T12:51:51;17.67;;;14.63;;
73872;SDS011;62206;47.568;9.364;2023-12-28T12:54:20;17.30;;;14.73;;
73872;SDS011;62206;47.568;9.364;2023-12-28T12:56:47;16.73;;;14.57;;
73872;SDS011;62206;47.568;9.364;2023-12-28T12:59:14;19.02;;;15.15;;
73872;SDS011;62206;47.568;9.364;2023-12-28T13:01:43;18.52;;;16.40;;
73872;SDS011;62206;47.568;9.364;2023-12-28T13:04:10;18.60;;;15.95;;
73872;SDS011;62206;47.568;9.364;2023-12-28T13:06:38;20.70;;;16.37;;
73872;SDS011;62206;47.568;9.364;2023-12-28T13:09:05;18.90;;;15.45;;
73872;SDS011;62206;47.568;9.364;2023-12-28T13:11:34;20.27;;;17.02;;
73872;SDS011;62206;47.568;9.364;2023-12-28T13:14:01;17.88;;;15.95;;
73872;SDS011;62206;47.568;9.364;2023-12-28T13:16:28;18.65;;;16.05;;
73872;SDS011;62206;47.568;9.364;2023-12-28T13:18:55;19.17;;;17.07;;
73872;SDS011;62206;47.568;9.364;2023-12-28T13:21:23;18.90;;;15.98;;
73872;SDS011;62206;47.568;9.364;2023-12-28T13:23:50;21.27;;;16.90;;
73872;SDS011;62206;47.568;9.364;2023-12-28T13:26:17;19.02;;;15.70;;
73872;SDS011;62206;47.568;9.364;2023-12-28T13:28:45;17.73;;;15.82;;
73872;SDS011;62206;47.568;9.364;2023-12-28T13:31:13;19.87;;;16.70;;
73872;SDS011;62206;47.568;9.364;2023-12-28T13:33:40;18.23;;;16.17;;
73872;SDS011;62206;47.568;9.364;2023-12-28T13:36:07;19.50;;;16.73;;
73872;SDS011;62206;47.568;9.364;2023-12-28T13:38:35;17.30;;;14.18;;
73872;SDS011;62206;47.568;9.364;2023-12-28T13:41:02;16.85;;;15.05;;
73872;SDS011;62206;47.568;9.364;2023-12-28T13:43:29;18.47;;;15.40;;
73872;SDS011;62206;47.568;9.364;2023-12-28T13:45:58;17.33;;;14.82;;
73872;SDS011;62206;47.568;9.364;2023-12-28T13:48:24;17.00;;;14.73;;
73872;SDS011;62206;47.568;9.364;2023-12-28T13:50:51;16.00;;;14.30;;
73872;SDS011;62206;47.568;9.364;2023-12-28T13:53:19;16.77;;;14.65;;
73872;SDS011;62206;47.568;9.364;2023-12-28T13:55:45;16.73;;;14.93;;
73872;SDS011;62206;47.568;9.364;2023-12-28T13:58:12;18.73;;;15.45;;
73872;SDS011;62206;47.568;9.364;2023-12-28T14:00:40;19.77;;;15.77;;
73872;SDS011;62206;47.568;9.364;2023-12-28T14:03:08;20.88;;;15.98;;
73872;SDS011;62206;47.568;9.364;2023-12-28T14:05:35;20.45;;;15.27;;
73872;SDS011;62206;47.568;9.364;2023-12-28T14:08:03;15.37;;;13.63;;
73872;SDS011;62206;47.568;9.364;2023-12-28T14:10:30;15.93;;;13.70;;
73872;SDS011;62206;47.568;9.364;2023-12-28T14:12:58;15.55;;;13.90;;
73872;SDS011;62206;47.568;9.364;2023-12-28T14:15:25;14.52;;;12.95;;
73872;SDS011;62206;47.568;9.364;2023-12-28T14:17:52;16.63;;;14.35;;
73872;SDS011;62206;47.568;9.364;2023-12-28T14:20:20;17.50;;;14.30;;
73872;SDS011;62206;47.568;9.364;2023-12-28T14:22:48;17.58;;;14.43;;
73872;SDS011;62206;47.568;9.364;2023-12-28T14:25:16;15.93;;;14.23;;